createdAt,value
2023-05-18T00:00:35.604Z,21.61
2023-05-18T00:03:03.550Z,21.59
2023-05-18T00:05:34.570Z,21.62
2023-05-18T00:08:04.593Z,21.63
2023-05-18T00:10:31.827Z,21.62
2023-05-18T00:12:58.883Z,21.59
2023-05-18T00:15:27.649Z,21.59
2023-05-18T00:17:54.883Z,21.61
2023-05-18T00:20:22.379Z,21.57
2023-05-18T00:22:51.052Z,21.63
2023-05-18T00:25:18.147Z,21.62
2023-05-18T00:27:45.204Z,21.58
2023-05-18T00:30:13.277Z,21.61
2023-05-18T00:32:40.444Z,21.56
2023-05-18T00:35:07.944Z,21.53
2023-05-18T00:37:35.165Z,21.55
2023-05-18T00:40:02.322Z,21.54
2023-05-18T00:42:29.540Z,21.56
2023-05-18T00:44:56.755Z,21.45
2023-05-18T00:47:23.928Z,21.49
2023-05-18T00:49:51.631Z,21.43
2023-05-18T00:52:18.961Z,21.39
2023-05-18T00:54:47.779Z,21.40
2023-05-18T00:57:14.968Z,21.32
2023-05-18T00:59:44.688Z,21.36
2023-05-18T01:02:12.252Z,21.46
2023-05-18T01:04:43.181Z,21.37
2023-05-18T01:07:16.775Z,21.46
2023-05-18T01:09:43.767Z,21.31
2023-05-18T01:12:33.158Z,21.40
2023-05-18T01:15:09.050Z,21.32
2023-05-18T01:18:07.033Z,21.33
2023-05-18T01:20:49.735Z,21.34
2023-05-18T01:23:48.812Z,21.36
2023-05-18T01:26:33.142Z,21.35
2023-05-18T01:29:09.380Z,21.34
2023-05-18T01:31:39.216Z,21.38
2023-05-18T01:34:07.023Z,21.35
2023-05-18T01:36:34.170Z,21.37
2023-05-18T01:39:02.157Z,21.36
2023-05-18T01:41:31.076Z,21.34
2023-05-18T01:44:20.025Z,21.29
2023-05-18T01:47:01.346Z,21.22
2023-05-18T01:49:42.052Z,21.16
2023-05-18T01:52:18.700Z,21.13
2023-05-18T01:54:52.586Z,21.08
2023-05-18T01:57:23.953Z,21.14
2023-05-18T01:59:51.765Z,21.14
2023-05-18T02:02:19.362Z,21.14
2023-05-18T02:04:46.641Z,21.16
2023-05-18T02:07:16.070Z,21.15
2023-05-18T02:09:44.557Z,21.18
2023-05-18T02:12:14.796Z,21.09
2023-05-18T02:14:42.035Z,21.09
2023-05-18T02:17:09.283Z,21.06
2023-05-18T02:19:39.521Z,21.03
2023-05-18T02:22:07.706Z,21.04
2023-05-18T02:24:36.023Z,21.02
2023-05-18T02:27:03.616Z,21.03
2023-05-18T02:29:30.829Z,21.02
2023-05-18T02:31:57.963Z,20.93
2023-05-18T02:34:27.667Z,20.92
2023-05-18T02:36:58.247Z,20.85
2023-05-18T02:39:25.551Z,20.85
2023-05-18T02:41:53.331Z,20.90
2023-05-18T02:44:21.190Z,20.82
2023-05-18T02:46:49.216Z,20.85
2023-05-18T02:49:16.480Z,20.79
2023-05-18T02:51:43.720Z,20.79
2023-05-18T02:54:11.713Z,20.77
2023-05-18T02:56:44.313Z,20.82
2023-05-18T02:59:23.246Z,20.76
2023-05-18T03:01:51.128Z,20.73
2023-05-18T03:04:18.550Z,20.67
2023-05-18T03:06:53.542Z,20.64
2023-05-18T03:09:23.209Z,20.59
2023-05-18T03:11:53.802Z,20.63
2023-05-18T03:14:20.982Z,20.62
2023-05-18T03:16:48.274Z,20.50
2023-05-18T03:19:17.722Z,20.47
2023-05-18T03:21:45.587Z,20.50
2023-05-18T03:24:14.810Z,20.52
2023-05-18T03:26:44.710Z,20.58
2023-05-18T03:29:13.671Z,20.42
2023-05-18T03:31:41.814Z,20.38
2023-05-18T03:34:11.208Z,20.44
2023-05-18T03:36:38.556Z,20.36
2023-05-18T03:39:06.893Z,20.30
2023-05-18T03:41:37.322Z,20.30
2023-05-18T03:44:04.429Z,20.27
2023-05-18T03:46:31.552Z,20.21
2023-05-18T03:49:01.288Z,20.22
2023-05-18T03:51:34.267Z,20.23
2023-05-18T03:54:02.200Z,20.27
2023-05-18T03:56:34.361Z,20.27
2023-05-18T03:59:03.593Z,20.20
2023-05-18T04:01:36.086Z,20.20
2023-05-18T04:04:04.486Z,20.19
2023-05-18T04:06:34.596Z,20.19
2023-05-18T04:09:05.190Z,20.21
2023-05-18T04:11:35.189Z,20.24
2023-05-18T04:14:04.412Z,20.23
2023-05-18T04:16:31.785Z,20.26
2023-05-18T04:19:01.845Z,20.26
2023-05-18T04:21:35.688Z,20.24
2023-05-18T04:24:05.591Z,20.19
2023-05-18T04:26:38.715Z,20.22
2023-05-18T04:29:10.994Z,20.19
2023-05-18T04:31:38.273Z,20.21
2023-05-18T04:34:09.928Z,20.15
2023-05-18T04:36:39.947Z,20.17
2023-05-18T04:39:08.042Z,20.17
2023-05-18T04:41:35.845Z,20.20
2023-05-18T04:44:04.518Z,20.19
2023-05-18T04:46:32.751Z,20.20
2023-05-18T04:49:02.473Z,20.19
2023-05-18T04:51:34.845Z,20.23
2023-05-18T04:54:03.436Z,20.25
2023-05-18T04:56:31.744Z,20.23
2023-05-18T04:59:02.202Z,20.25
2023-05-18T05:01:29.927Z,20.22
2023-05-18T05:03:58.982Z,20.11
2023-05-18T05:06:27.156Z,20.13
2023-05-18T05:08:54.348Z,20.12
2023-05-18T05:11:21.804Z,20.03
2023-05-18T05:13:49.144Z,20.11
2023-05-18T05:16:16.575Z,20.10
2023-05-18T05:18:45.831Z,20.08
2023-05-18T05:21:14.601Z,20.04
2023-05-18T05:23:45.534Z,20.03
2023-05-18T05:26:13.508Z,20.03
2023-05-18T05:28:43.946Z,20.07
2023-05-18T05:31:11.659Z,20.05
2023-05-18T05:33:39.058Z,20.03
2023-05-18T05:36:08.454Z,20.07
2023-05-18T05:38:35.959Z,20.07
2023-05-18T05:41:03.426Z,20.03
2023-05-18T05:43:30.948Z,20.03
2023-05-18T05:45:58.198Z,20.05
2023-05-18T05:48:25.842Z,20.02
2023-05-18T05:50:53.306Z,20.11
2023-05-18T05:53:21.176Z,20.08
2023-05-18T05:55:49.489Z,20.15
2023-05-18T05:58:18.764Z,20.14
2023-05-18T06:00:54.019Z,20.20
2023-05-18T06:03:21.801Z,20.18
2023-05-18T06:05:49.929Z,20.24
2023-05-18T06:08:19.747Z,20.22
2023-05-18T06:10:48.291Z,20.21
2023-05-18T06:13:21.012Z,20.15
2023-05-18T06:15:54.524Z,20.26
2023-05-18T06:18:26.885Z,20.38
2023-05-18T06:20:58.936Z,20.46
2023-05-18T06:23:29.369Z,20.48
2023-05-18T06:26:07.083Z,20.54
2023-05-18T06:28:58.516Z,20.67
2023-05-18T06:31:46.580Z,20.70
2023-05-18T06:34:23.923Z,20.72
2023-05-18T06:36:54.058Z,20.79
2023-05-18T06:39:32.071Z,20.77
2023-05-18T06:42:02.559Z,20.85
2023-05-18T06:44:39.425Z,20.87
2023-05-18T06:47:32.866Z,20.97
2023-05-18T06:50:17.596Z,21.01
2023-05-18T06:52:49.986Z,21.12
2023-05-18T06:55:23.337Z,21.21
2023-05-18T06:58:11.523Z,21.23
2023-05-18T07:00:49.735Z,21.32
2023-05-18T07:03:30.223Z,21.04
2023-05-18T07:06:08.618Z,21.31
2023-05-18T07:08:45.203Z,21.21
2023-05-18T07:11:23.046Z,21.48
2023-05-18T07:14:03.246Z,21.33
2023-05-18T07:16:45.339Z,21.35
2023-05-18T07:19:27.044Z,21.55
2023-05-18T07:22:07.920Z,21.59
2023-05-18T07:24:48.831Z,21.73
2023-05-18T07:27:29.755Z,21.77
2023-05-18T07:30:32.088Z,21.70
2023-05-18T07:33:15.123Z,21.36
2023-05-18T07:36:00.474Z,21.36
2023-05-18T07:38:55.175Z,21.74
2023-05-18T07:41:38.826Z,21.74
2023-05-18T07:44:24.657Z,21.81
2023-05-18T07:46:59.525Z,22.04
2023-05-18T07:49:42.858Z,21.68
2023-05-18T07:52:13.384Z,21.62
2023-05-18T07:54:47.928Z,21.68
2023-05-18T07:57:25.434Z,21.87
2023-05-18T08:00:14.134Z,21.80
2023-05-18T08:02:47.301Z,21.94
2023-05-18T08:05:34.388Z,21.90
2023-05-18T08:08:06.795Z,22.16
2023-05-18T08:10:39.246Z,22.09
2023-05-18T08:13:07.587Z,22.43
2023-05-18T08:15:36.082Z,22.51
2023-05-18T08:18:04.560Z,22.54
2023-05-18T08:20:44.116Z,22.37
2023-05-18T08:23:23.626Z,22.78
2023-05-18T08:25:51.692Z,22.29
2023-05-18T08:28:25.530Z,22.52
2023-05-18T08:31:05.615Z,22.37
2023-05-18T08:33:39.644Z,22.44
2023-05-18T08:36:08.281Z,22.53
2023-05-18T08:38:35.888Z,22.30
2023-05-18T08:41:13.237Z,22.77
2023-05-18T08:43:47.175Z,23.18
2023-05-18T08:46:44.450Z,23.35
2023-05-18T08:49:31.053Z,23.97
2023-05-18T08:52:05.849Z,24.30
2023-05-18T08:54:35.922Z,24.12
2023-05-18T08:57:13.862Z,24.42
2023-05-18T08:59:43.368Z,24.86
2023-05-18T09:02:15.508Z,24.95
2023-05-18T09:04:45.118Z,24.55
2023-05-18T09:07:13.601Z,23.82
2023-05-18T09:09:41.797Z,24.28
2023-05-18T09:12:10.153Z,24.91
2023-05-18T09:14:38.343Z,24.97
2023-05-18T09:17:05.662Z,25.48
2023-05-18T09:19:48.041Z,25.28
2023-05-18T09:22:18.931Z,25.10
2023-05-18T09:24:52.670Z,25.09
2023-05-18T09:30:17.078Z,25.07
2023-05-18T09:32:48.177Z,25.57
2023-05-18T09:35:19.153Z,25.83
2023-05-18T09:37:46.676Z,25.59
2023-05-18T09:40:14.444Z,25.78
2023-05-18T09:42:44.869Z,26.34
2023-05-18T09:45:38.306Z,26.18
2023-05-18T09:48:09.494Z,25.90
2023-05-18T09:50:37.848Z,25.27
2023-05-18T09:53:17.814Z,25.92
2023-05-18T09:55:50.073Z,25.33
2023-05-18T09:58:19.444Z,25.78
2023-05-18T10:00:52.128Z,25.92
2023-05-18T10:03:24.261Z,26.61
2023-05-18T10:05:52.277Z,26.02
2023-05-18T10:08:21.067Z,26.42
2023-05-18T10:10:50.457Z,26.34
2023-05-18T10:13:26.340Z,26.54
2023-05-18T10:16:00.147Z,26.43
2023-05-18T10:18:39.127Z,26.66
2023-05-18T10:21:19.115Z,26.33
2023-05-18T10:23:51.267Z,26.28
2023-05-18T10:26:27.925Z,26.72
2023-05-18T10:29:05.159Z,26.05
2023-05-18T10:31:38.962Z,26.53
2023-05-18T10:34:11.320Z,26.50
2023-05-18T10:36:43.225Z,26.57
2023-05-18T10:39:13.029Z,26.97
2023-05-18T10:41:49.141Z,26.96
2023-05-18T10:44:16.738Z,27.13
2023-05-18T10:46:46.833Z,26.84
2023-05-18T10:49:24.619Z,27.20
2023-05-18T10:51:56.689Z,26.63
2023-05-18T10:54:36.329Z,27.43
2023-05-18T10:57:07.468Z,27.51
2023-05-18T10:59:42.595Z,27.27
2023-05-18T11:02:17.101Z,27.06
2023-05-18T11:04:48.083Z,26.70
2023-05-18T11:07:16.355Z,25.53
2023-05-18T11:09:45.040Z,25.94
2023-05-18T11:12:22.980Z,25.75
2023-05-18T11:14:56.884Z,25.74
2023-05-18T11:17:30.143Z,25.51
2023-05-18T11:20:13.263Z,25.63
2023-05-18T11:22:49.500Z,25.85
2023-05-18T11:25:31.274Z,25.10
2023-05-18T11:28:02.831Z,25.85
2023-05-18T11:30:53.011Z,25.91
2023-05-18T11:33:36.144Z,25.55
2023-05-18T11:36:09.736Z,24.85
2023-05-18T11:39:00.044Z,24.62
2023-05-18T11:41:52.564Z,24.27
2023-05-18T11:44:30.269Z,24.46
2023-05-18T11:47:07.172Z,25.19
2023-05-18T11:49:53.948Z,24.63
2023-05-18T11:52:37.271Z,24.88
2023-05-18T11:55:20.056Z,25.04
2023-05-18T11:57:59.446Z,25.30
2023-05-18T12:00:47.728Z,25.23
2023-05-18T12:03:24.256Z,24.82
2023-05-18T12:06:04.828Z,24.51
2023-05-18T12:08:53.550Z,24.69
2023-05-18T12:11:35.342Z,24.40
2023-05-18T12:14:12.237Z,23.96
2023-05-18T12:16:49.374Z,23.88
2023-05-18T12:19:23.879Z,24.04
2023-05-18T12:22:06.852Z,24.15
2023-05-18T12:24:49.132Z,24.17
2023-05-18T12:27:33.764Z,23.77
2023-05-18T12:30:07.749Z,23.57
2023-05-18T12:32:39.391Z,23.83
2023-05-18T12:35:21.241Z,23.46
2023-05-18T12:38:02.013Z,23.34
2023-05-18T12:40:49.168Z,23.07
2023-05-18T12:43:26.199Z,23.52
2023-05-18T12:46:14.813Z,23.32
2023-05-18T12:49:07.346Z,22.87
2023-05-18T12:51:44.189Z,23.27
2023-05-18T12:54:19.939Z,23.38
2023-05-18T12:57:13.423Z,23.56
2023-05-18T12:59:57.687Z,23.11
2023-05-18T13:02:38.572Z,23.80
2023-05-18T13:05:18.572Z,23.87
2023-05-18T13:07:50.352Z,23.95
2023-05-18T13:10:28.462Z,23.77
2023-05-18T13:13:05.230Z,23.98
2023-05-18T13:15:49.575Z,24.02
2023-05-18T13:18:22.462Z,24.13
2023-05-18T13:20:57.812Z,24.18
2023-05-18T13:23:35.069Z,24.43
2023-05-18T13:26:03.234Z,23.82
2023-05-18T13:28:46.344Z,23.75
2023-05-18T13:31:24.754Z,23.44
2023-05-18T13:34:03.853Z,23.46
2023-05-18T13:36:36.951Z,23.78
2023-05-18T13:39:27.925Z,23.98
2023-05-18T13:45:22.196Z,24.01
2023-05-18T13:48:01.515Z,23.92
2023-05-18T13:50:48.043Z,24.28
2023-05-18T13:53:23.572Z,24.05
2023-05-18T13:55:54.422Z,23.97
2023-05-18T13:58:47.784Z,24.23
2023-05-18T14:01:26.149Z,23.94
2023-05-18T14:04:07.857Z,24.16
2023-05-18T14:06:40.955Z,24.23
2023-05-18T14:09:23.523Z,24.00
2023-05-18T14:12:02.202Z,24.04
2023-05-18T14:14:41.325Z,24.04
2023-05-18T14:17:23.578Z,23.76
2023-05-18T14:20:00.111Z,23.56
2023-05-18T14:22:28.614Z,23.60
2023-05-18T14:25:04.034Z,23.40
2023-05-18T14:27:48.828Z,23.68
2023-05-18T14:30:22.934Z,23.72
2023-05-18T14:32:56.587Z,23.37
2023-05-18T14:35:24.520Z,23.56
2023-05-18T14:37:55.181Z,23.57
2023-05-18T14:40:25.020Z,23.29
2023-05-18T14:43:01.564Z,23.56
2023-05-18T14:45:35.414Z,23.48
2023-05-18T14:48:11.264Z,23.51
2023-05-18T14:50:43.784Z,23.48
2023-05-18T14:53:24.621Z,23.03
2023-05-18T14:56:08.739Z,23.55
2023-05-18T14:58:39.208Z,23.10
2023-05-18T15:01:17.131Z,23.33
2023-05-18T15:03:49.411Z,23.56
2023-05-18T15:06:20.198Z,23.69
2023-05-18T15:08:51.920Z,23.39
2023-05-18T15:11:25.377Z,23.14
2023-05-18T15:13:57.060Z,22.63
2023-05-18T15:16:28.995Z,22.90
2023-05-18T15:19:03.879Z,23.11
2023-05-18T15:21:49.825Z,23.51
2023-05-18T15:24:17.690Z,23.31
2023-05-18T15:26:54.131Z,23.21
2023-05-18T15:29:32.173Z,23.72
2023-05-18T15:31:59.768Z,23.37
2023-05-18T15:34:33.825Z,23.48
2023-05-18T15:37:03.920Z,23.52
2023-05-18T15:39:34.115Z,23.27
2023-05-18T15:42:18.029Z,23.34
2023-05-18T15:48:15.616Z,23.11
2023-05-18T15:51:05.892Z,22.84
2023-05-18T15:53:41.419Z,23.17
2023-05-18T15:56:21.692Z,23.19
2023-05-18T15:58:55.774Z,23.27
2023-05-18T16:01:23.804Z,23.18
2023-05-18T16:03:53.327Z,22.80
2023-05-18T16:06:20.943Z,22.68
2023-05-18T16:08:56.175Z,22.97
2023-05-18T16:11:33.554Z,22.65
2023-05-18T16:14:20.827Z,22.62
2023-05-18T16:16:57.643Z,22.65
2023-05-18T16:19:39.891Z,22.59
2023-05-18T16:22:17.118Z,22.52
2023-05-18T16:24:48.763Z,22.57
2023-05-18T16:27:29.205Z,22.27
2023-05-18T16:30:09.495Z,22.24
2023-05-18T16:32:44.207Z,22.25
2023-05-18T16:35:14.547Z,22.27
2023-05-18T16:38:04.126Z,22.48
2023-05-18T16:40:39.062Z,22.59
2023-05-18T16:43:11.397Z,22.30
2023-05-18T16:45:47.481Z,22.36
2023-05-18T16:48:20.526Z,22.30
2023-05-18T16:50:50.064Z,22.08
2023-05-18T16:53:28.951Z,22.11
2023-05-18T16:55:58.589Z,22.21
2023-05-18T16:58:37.563Z,21.97
2023-05-18T17:01:28.010Z,21.98
2023-05-18T17:04:06.182Z,21.95
2023-05-18T17:06:47.495Z,22.21
2023-05-18T17:09:47.657Z,21.89
2023-05-18T17:12:36.613Z,22.16
2023-05-18T17:18:24.426Z,22.34
2023-05-18T17:21:06.452Z,22.40
2023-05-18T17:23:41.925Z,22.43
2023-05-18T17:26:12.516Z,22.14
2023-05-18T17:28:54.049Z,22.23
2023-05-18T17:31:22.220Z,22.03
2023-05-18T17:33:57.756Z,21.83
2023-05-18T17:36:50.448Z,22.13
2023-05-18T17:39:39.773Z,21.79
2023-05-18T17:42:27.815Z,22.12
2023-05-18T17:44:58.187Z,22.24
2023-05-18T17:47:35.028Z,22.37
2023-05-18T17:50:07.065Z,22.28
2023-05-18T17:52:37.173Z,22.11
2023-05-18T17:55:17.718Z,22.10
2023-05-18T17:57:49.374Z,22.20
2023-05-18T18:00:25.283Z,22.39
2023-05-18T18:02:58.282Z,22.49
2023-05-18T18:05:28.739Z,22.30
2023-05-18T18:07:58.703Z,22.40
2023-05-18T18:10:35.058Z,22.21
2023-05-18T18:13:09.506Z,21.90
2023-05-18T18:15:37.817Z,22.12
2023-05-18T18:18:10.417Z,21.97
2023-05-18T18:20:40.973Z,22.08
2023-05-18T18:23:16.267Z,22.13
2023-05-18T18:25:45.062Z,22.17
2023-05-18T18:28:33.514Z,22.33
2023-05-18T18:31:21.134Z,22.10
2023-05-18T18:33:59.226Z,22.10
2023-05-18T18:36:31.986Z,21.84
2023-05-18T18:39:01.802Z,21.96
2023-05-18T18:41:31.999Z,22.02
2023-05-18T18:44:02.999Z,22.10
2023-05-18T18:46:41.220Z,22.11
2023-05-18T18:49:11.555Z,22.20
2023-05-18T18:51:50.671Z,22.27
2023-05-18T18:54:24.088Z,21.88
2023-05-18T18:56:57.365Z,22.02
2023-05-18T18:59:27.799Z,22.14
2023-05-18T19:02:03.774Z,22.18
2023-05-18T19:04:35.415Z,22.23
2023-05-18T19:07:05.967Z,21.99
2023-05-18T19:12:30.941Z,22.10
2023-05-18T19:15:02.109Z,22.13
2023-05-18T19:17:30.224Z,22.20
2023-05-18T19:20:07.906Z,21.54
2023-05-18T19:22:37.010Z,21.73
2023-05-18T19:25:07.379Z,21.91
2023-05-18T19:27:35.178Z,21.90
2023-05-18T19:30:10.196Z,22.11
2023-05-18T19:32:37.767Z,22.01
2023-05-18T19:35:13.167Z,21.88
2023-05-18T19:37:42.986Z,21.83
2023-05-18T19:40:21.021Z,21.89
2023-05-18T19:43:00.062Z,22.07
2023-05-18T19:45:36.197Z,21.70
2023-05-18T19:48:12.994Z,21.81
2023-05-18T19:50:45.120Z,21.94
2023-05-18T19:53:29.400Z,21.89
2023-05-18T19:56:13.408Z,21.95
2023-05-18T19:58:48.892Z,21.89
2023-05-18T20:01:38.333Z,21.99
2023-05-18T20:04:13.052Z,21.93
2023-05-18T20:06:54.863Z,21.88
2023-05-18T20:09:29.221Z,21.55
2023-05-18T20:12:03.755Z,21.67
2023-05-18T20:14:39.617Z,21.67
2023-05-18T20:17:35.635Z,21.94
2023-05-18T20:20:42.279Z,21.87
2023-05-18T20:23:14.887Z,21.79
2023-05-18T20:26:09.231Z,21.32
2023-05-18T20:29:06.488Z,21.42
2023-05-18T20:31:51.511Z,21.67
2023-05-18T20:34:36.877Z,21.79
2023-05-18T20:37:16.375Z,21.80
2023-05-18T20:39:58.937Z,21.84
2023-05-18T20:43:01.640Z,21.55
2023-05-18T20:46:25.859Z,21.21
2023-05-18T20:49:13.848Z,21.24
2023-05-18T20:52:03.013Z,21.56
2023-05-18T20:54:58.275Z,21.41
2023-05-18T20:57:56.902Z,21.26
2023-05-18T21:00:29.909Z,20.92
2023-05-18T21:03:29.267Z,21.08
2023-05-18T21:06:31.563Z,21.21
2023-05-18T21:08:59.471Z,21.40
2023-05-18T21:12:09.360Z,21.46
2023-05-18T21:15:00.709Z,21.51
2023-05-18T21:18:02.693Z,21.37
2023-05-18T21:20:58.740Z,21.47
2023-05-18T21:23:54.238Z,21.48
2023-05-18T21:26:33.043Z,21.60
2023-05-18T21:29:00.524Z,21.47
2023-05-18T21:31:43.476Z,21.35
2023-05-18T21:34:58.182Z,21.42
2023-05-18T21:37:51.836Z,21.44
2023-05-18T21:40:44.926Z,21.50
2023-05-18T21:43:18.083Z,21.59
2023-05-18T21:46:20.047Z,21.37
2023-05-18T21:49:28.880Z,21.26
2023-05-18T21:52:24.612Z,21.40
2023-05-18T21:55:07.608Z,21.37
2023-05-18T21:57:54.632Z,21.27
2023-05-18T22:00:44.412Z,21.30
2023-05-18T22:03:22.319Z,21.45
2023-05-18T22:06:24.986Z,21.38
2023-05-18T22:09:12.928Z,21.48
2023-05-18T22:12:08.812Z,21.50
2023-05-18T22:14:48.944Z,21.39
2023-05-18T22:17:34.424Z,21.58
2023-05-18T22:20:24.961Z,21.41
2023-05-18T22:23:04.831Z,21.27
2023-05-18T22:25:53.440Z,21.43
2023-05-18T22:28:50.287Z,21.44
2023-05-18T22:31:27.966Z,21.18
2023-05-18T22:34:27.966Z,21.48
2023-05-18T22:37:06.512Z,21.55
2023-05-18T22:39:43.952Z,21.57
2023-05-18T22:42:19.382Z,21.44
2023-05-18T22:44:54.940Z,21.37
2023-05-18T22:47:33.422Z,21.29
2023-05-18T22:50:05.111Z,21.49
2023-05-18T22:52:45.462Z,21.48
2023-05-18T22:55:21.495Z,21.60
2023-05-18T22:58:00.278Z,21.38
2023-05-18T23:00:36.026Z,21.39
2023-05-18T23:03:07.198Z,21.35
2023-05-18T23:06:16.810Z,21.27
2023-05-18T23:08:56.265Z,21.28
2023-05-18T23:11:35.646Z,21.40
2023-05-18T23:14:20.575Z,21.28
2023-05-18T23:16:59.795Z,21.15
2023-05-18T23:19:35.658Z,21.32
2023-05-18T23:22:06.681Z,21.35
2023-05-18T23:24:46.440Z,21.49
2023-05-18T23:27:24.383Z,21.55
2023-05-18T23:30:04.673Z,21.63
2023-05-18T23:32:45.627Z,21.70
2023-05-18T23:35:23.913Z,21.69
2023-05-18T23:38:09.169Z,21.67
2023-05-18T23:41:00.249Z,21.70
2023-05-18T23:43:46.169Z,21.64
2023-05-18T23:46:26.788Z,21.72
2023-05-18T23:49:11.458Z,21.75
2023-05-18T23:52:02.598Z,21.74
2023-05-18T23:54:44.191Z,21.76
2023-05-18T23:57:27.730Z,21.70
